sensor_id;sensor_type;location;lat;lon;timestamp;temperature;humidity
22288;DHT22;11312;51.464;6.968;2023-02-13T00:01:58;8.90;99.90
22288;DHT22;11312;51.464;6.968;2023-02-13T00:04:24;8.80;99.90
22288;DHT22;11312;51.464;6.968;2023-02-13T00:06:50;8.80;99.90
22288;DHT22;11312;51.464;6.968;2023-02-13T00:09:15;8.90;99.90
22288;DHT22;11312;51.464;6.968;2023-02-13T00:11:41;8.80;99.90
22288;DHT22;11312;51.464;6.968;2023-02-13T00:14:07;8.90;99.90
22288;DHT22;11312;51.464;6.968;2023-02-13T00:16:33;8.90;99.90
22288;DHT22;11312;51.464;6.968;2023-02-13T00:18:58;8.90;99.90
22288;DHT22;11312;51.464;6.968;2023-02-13T00:21:24;8.90;99.90
22288;DHT22;11312;51.464;6.968;2023-02-13T00:23:49;8.90;99.90
22288;DHT22;11312;51.464;6.968;2023-02-13T00:26:16;8.80;99.90
22288;DHT22;11312;51.464;6.968;2023-02-13T00:28:42;8.80;99.90
22288;DHT22;11312;51.464;6.968;2023-02-13T00:31:10;8.90;99.90
22288;DHT22;11312;51.464;6.968;2023-02-13T00:33:37;8.90;99.90
22288;DHT22;11312;51.464;6.968;2023-02-13T00:36:07;8.90;99.90
22288;DHT22;11312;51.464;6.968;2023-02-13T00:38:35;8.90;99.90
22288;DHT22;11312;51.464;6.968;2023-02-13T00:41:01;8.90;99.90
22288;DHT22;11312;51.464;6.968;2023-02-13T00:43:27;8.90;99.90
22288;DHT22;11312;51.464;6.968;2023-02-13T00:45:52;8.90;99.90
22288;DHT22;11312;51.464;6.968;2023-02-13T00:48:18;9.00;99.90
22288;DHT22;11312;51.464;6.968;2023-02-13T00:50:45;9.00;99.90
22288;DHT22;11312;51.464;6.968;2023-02-13T00:53:11;9.00;99.90
22288;DHT22;11312;51.464;6.968;2023-02-13T00:55:37;8.90;99.90
22288;DHT22;11312;51.464;6.968;2023-02-13T00:58:03;9.00;99.90
22288;DHT22;11312;51.464;6.968;2023-02-13T01:00:30;9.00;99.90
22288;DHT22;11312;51.464;6.968;2023-02-13T01:02:55;8.90;99.90
22288;DHT22;11312;51.464;6.968;2023-02-13T01:05:21;9.00;99.90
22288;DHT22;11312;51.464;6.968;2023-02-13T01:07:47;9.00;99.90
22288;DHT22;11312;51.464;6.968;2023-02-13T01:10:12;8.90;99.90
22288;DHT22;11312;51.464;6.968;2023-02-13T01:12:38;9.00;99.90
22288;DHT22;11312;51.464;6.968;2023-02-13T01:15:04;8.90;99.90
22288;DHT22;11312;51.464;6.968;2023-02-13T01:17:30;8.90;99.90
22288;DHT22;11312;51.464;6.968;2023-02-13T01:19:56;8.90;99.90
22288;DHT22;11312;51.464;6.968;2023-02-13T01:22:21;9.00;99.90
22288;DHT22;11312;51.464;6.968;2023-02-13T01:24:47;9.00;99.90
22288;DHT22;11312;51.464;6.968;2023-02-13T01:27:12;9.00;99.90
22288;DHT22;11312;51.464;6.968;2023-02-13T01:29:38;8.90;99.90
22288;DHT22;11312;51.464;6.968;2023-02-13T01:32:04;8.90;99.90
22288;DHT22;11312;51.464;6.968;2023-02-13T01:34:33;8.90;99.90
22288;DHT22;11312;51.464;6.968;2023-02-13T01:36:58;8.90;99.90
22288;DHT22;11312;51.464;6.968;2023-02-13T01:39:24;8.90;99.90
22288;DHT22;11312;51.464;6.968;2023-02-13T01:41:50;8.90;99.90
22288;DHT22;11312;51.464;6.968;2023-02-13T01:44:45;8.80;99.90
22288;DHT22;11312;51.464;6.968;2023-02-13T01:47:12;8.80;99.90
22288;DHT22;11312;51.464;6.968;2023-02-13T01:49:39;8.80;99.90
22288;DHT22;11312;51.464;6.968;2023-02-13T01:52:06;8.80;99.90
22288;DHT22;11312;51.464;6.968;2023-02-13T01:54:33;8.80;99.90
22288;DHT22;11312;51.464;6.968;2023-02-13T01:57:11;8.80;99.90
22288;DHT22;11312;51.464;6.968;2023-02-13T01:59:48;8.70;99.90
22288;DHT22;11312;51.464;6.968;2023-02-13T02:02:16;8.80;99.90
22288;DHT22;11312;51.464;6.968;2023-02-13T02:04:43;8.80;99.90
22288;DHT22;11312;51.464;6.968;2023-02-13T02:07:16;8.70;99.90
22288;DHT22;11312;51.464;6.968;2023-02-13T02:09:44;8.80;99.90
22288;DHT22;11312;51.464;6.968;2023-02-13T02:12:24;8.70;99.90
22288;DHT22;11312;51.464;6.968;2023-02-13T02:14:52;8.80;99.90
22288;DHT22;11312;51.464;6.968;2023-02-13T02:17:21;8.70;99.90
22288;DHT22;11312;51.464;6.968;2023-02-13T02:20:03;8.70;99.90
22288;DHT22;11312;51.464;6.968;2023-02-13T02:33:17;8.60;99.90
22288;DHT22;11312;51.464;6.968;2023-02-13T02:38:30;8.60;99.90
22288;DHT22;11312;51.464;6.968;2023-02-13T02:41:30;8.70;99.90
22288;DHT22;11312;51.464;6.968;2023-02-13T02:44:17;8.60;99.90
22288;DHT22;11312;51.464;6.968;2023-02-13T02:47:08;8.60;99.90
22288;DHT22;11312;51.464;6.968;2023-02-13T02:50:36;8.70;99.90
22288;DHT22;11312;51.464;6.968;2023-02-13T02:56:04;8.60;99.90
22288;DHT22;11312;51.464;6.968;2023-02-13T02:58:45;8.50;99.90
22288;DHT22;11312;51.464;6.968;2023-02-13T03:01:33;8.50;99.90
22288;DHT22;11312;51.464;6.968;2023-02-13T03:04:32;8.60;99.90
22288;DHT22;11312;51.464;6.968;2023-02-13T03:07:19;8.60;99.90
22288;DHT22;11312;51.464;6.968;2023-02-13T03:09:52;8.50;99.90
22288;DHT22;11312;51.464;6.968;2023-02-13T03:15:38;8.50;99.90
22288;DHT22;11312;51.464;6.968;2023-02-13T03:18:24;8.40;99.90
22288;DHT22;11312;51.464;6.968;2023-02-13T03:24:24;8.40;99.90
22288;DHT22;11312;51.464;6.968;2023-02-13T03:27:18;8.30;99.90
22288;DHT22;11312;51.464;6.968;2023-02-13T03:38:51;8.20;99.90
22288;DHT22;11312;51.464;6.968;2023-02-13T03:41:25;8.10;99.90
22288;DHT22;11312;51.464;6.968;2023-02-13T03:46:38;8.10;99.90
22288;DHT22;11312;51.464;6.968;2023-02-13T03:49:07;8.10;99.90
22288;DHT22;11312;51.464;6.968;2023-02-13T03:54:32;8.00;99.90
22288;DHT22;11312;51.464;6.968;2023-02-13T03:57:19;8.00;99.90
22288;DHT22;11312;51.464;6.968;2023-02-13T04:00:06;8.10;99.90
22288;DHT22;11312;51.464;6.968;2023-02-13T04:02:43;8.00;99.90
22288;DHT22;11312;51.464;6.968;2023-02-13T04:05:15;8.10;99.90
22288;DHT22;11312;51.464;6.968;2023-02-13T04:07:42;8.10;99.90
22288;DHT22;11312;51.464;6.968;2023-02-13T04:10:12;8.10;99.90
22288;DHT22;11312;51.464;6.968;2023-02-13T04:13:02;8.10;99.90
22288;DHT22;11312;51.464;6.968;2023-02-13T04:15:53;8.10;99.90
22288;DHT22;11312;51.464;6.968;2023-02-13T04:18:24;8.00;99.90
22288;DHT22;11312;51.464;6.968;2023-02-13T04:20:51;8.10;99.90
22288;DHT22;11312;51.464;6.968;2023-02-13T04:23:17;8.00;99.90
22288;DHT22;11312;51.464;6.968;2023-02-13T04:25:46;8.00;99.90
22288;DHT22;11312;51.464;6.968;2023-02-13T04:28:13;8.00;99.90
22288;DHT22;11312;51.464;6.968;2023-02-13T04:30:38;8.00;99.90
22288;DHT22;11312;51.464;6.968;2023-02-13T04:33:04;8.00;99.90
22288;DHT22;11312;51.464;6.968;2023-02-13T04:35:29;8.00;99.90
22288;DHT22;11312;51.464;6.968;2023-02-13T04:37:55;8.00;99.90
22288;DHT22;11312;51.464;6.968;2023-02-13T04:40:21;8.00;99.90
22288;DHT22;11312;51.464;6.968;2023-02-13T04:42:47;8.00;99.90
22288;DHT22;11312;51.464;6.968;2023-02-13T04:45:13;8.00;99.90
22288;DHT22;11312;51.464;6.968;2023-02-13T04:47:39;8.00;99.90
22288;DHT22;11312;51.464;6.968;2023-02-13T04:50:05;7.90;99.90
22288;DHT22;11312;51.464;6.968;2023-02-13T04:52:31;8.00;99.90
22288;DHT22;11312;51.464;6.968;2023-02-13T04:54:57;8.00;99.90
22288;DHT22;11312;51.464;6.968;2023-02-13T04:57:22;8.00;99.90
22288;DHT22;11312;51.464;6.968;2023-02-13T04:59:48;8.00;99.90
22288;DHT22;11312;51.464;6.968;2023-02-13T05:02:14;8.00;99.90
22288;DHT22;11312;51.464;6.968;2023-02-13T05:04:39;8.00;99.90
22288;DHT22;11312;51.464;6.968;2023-02-13T05:07:05;8.00;99.90
22288;DHT22;11312;51.464;6.968;2023-02-13T05:09:30;7.90;99.90
22288;DHT22;11312;51.464;6.968;2023-02-13T05:11:56;8.00;99.90
22288;DHT22;11312;51.464;6.968;2023-02-13T05:14:22;8.00;99.90
22288;DHT22;11312;51.464;6.968;2023-02-13T05:16:47;8.00;99.90
22288;DHT22;11312;51.464;6.968;2023-02-13T05:19:14;7.90;99.90
22288;DHT22;11312;51.464;6.968;2023-02-13T05:21:40;7.90;99.90
22288;DHT22;11312;51.464;6.968;2023-02-13T05:24:25;7.90;99.90
22288;DHT22;11312;51.464;6.968;2023-02-13T05:26:50;7.90;99.90
22288;DHT22;11312;51.464;6.968;2023-02-13T05:29:16;7.90;99.90
22288;DHT22;11312;51.464;6.968;2023-02-13T05:31:52;8.00;99.90
22288;DHT22;11312;51.464;6.968;2023-02-13T05:34:19;7.90;99.90
22288;DHT22;11312;51.464;6.968;2023-02-13T05:36:45;7.90;99.90
22288;DHT22;11312;51.464;6.968;2023-02-13T05:39:11;7.90;99.90
22288;DHT22;11312;51.464;6.968;2023-02-13T05:41:37;7.90;99.90
22288;DHT22;11312;51.464;6.968;2023-02-13T05:44:03;7.90;99.90
22288;DHT22;11312;51.464;6.968;2023-02-13T05:46:29;7.90;99.90
22288;DHT22;11312;51.464;6.968;2023-02-13T05:48:55;7.90;99.90
22288;DHT22;11312;51.464;6.968;2023-02-13T05:51:21;7.90;99.90
22288;DHT22;11312;51.464;6.968;2023-02-13T05:53:46;7.90;99.90
22288;DHT22;11312;51.464;6.968;2023-02-13T05:56:12;7.80;99.90
22288;DHT22;11312;51.464;6.968;2023-02-13T05:58:38;7.80;99.90
22288;DHT22;11312;51.464;6.968;2023-02-13T06:01:03;7.80;99.90
22288;DHT22;11312;51.464;6.968;2023-02-13T06:03:30;7.80;99.90
22288;DHT22;11312;51.464;6.968;2023-02-13T06:05:56;7.80;99.90
22288;DHT22;11312;51.464;6.968;2023-02-13T06:08:22;7.70;99.90
22288;DHT22;11312;51.464;6.968;2023-02-13T06:10:48;7.60;99.90
22288;DHT22;11312;51.464;6.968;2023-02-13T06:13:15;7.50;99.90
22288;DHT22;11312;51.464;6.968;2023-02-13T06:15:41;7.40;99.90
22288;DHT22;11312;51.464;6.968;2023-02-13T06:18:07;7.20;99.90
22288;DHT22;11312;51.464;6.968;2023-02-13T06:20:33;7.20;99.90
22288;DHT22;11312;51.464;6.968;2023-02-13T06:22:59;7.00;99.90
22288;DHT22;11312;51.464;6.968;2023-02-13T06:25:24;6.90;99.90
22288;DHT22;11312;51.464;6.968;2023-02-13T06:27:50;6.80;99.90
22288;DHT22;11312;51.464;6.968;2023-02-13T06:30:16;6.90;99.90
22288;DHT22;11312;51.464;6.968;2023-02-13T06:32:43;6.90;99.90
22288;DHT22;11312;51.464;6.968;2023-02-13T06:35:10;6.80;99.90
22288;DHT22;11312;51.464;6.968;2023-02-13T06:37:36;6.70;99.90
22288;DHT22;11312;51.464;6.968;2023-02-13T06:40:01;6.70;99.90
22288;DHT22;11312;51.464;6.968;2023-02-13T06:42:27;6.60;99.90
22288;DHT22;11312;51.464;6.968;2023-02-13T06:44:52;6.60;99.90
22288;DHT22;11312;51.464;6.968;2023-02-13T06:47:18;6.50;99.90
22288;DHT22;11312;51.464;6.968;2023-02-13T06:49:44;6.50;99.90
22288;DHT22;11312;51.464;6.968;2023-02-13T06:52:09;6.40;99.90
22288;DHT22;11312;51.464;6.968;2023-02-13T06:54:35;6.20;99.90
22288;DHT22;11312;51.464;6.968;2023-02-13T06:57:00;6.30;99.90
22288;DHT22;11312;51.464;6.968;2023-02-13T06:59:26;6.10;99.90
22288;DHT22;11312;51.464;6.968;2023-02-13T07:01:52;6.00;99.90
22288;DHT22;11312;51.464;6.968;2023-02-13T07:04:17;6.00;99.90
22288;DHT22;11312;51.464;6.968;2023-02-13T07:06:43;5.90;99.90
22288;DHT22;11312;51.464;6.968;2023-02-13T07:09:09;5.90;99.90
22288;DHT22;11312;51.464;6.968;2023-02-13T07:11:38;5.90;99.90
22288;DHT22;11312;51.464;6.968;2023-02-13T07:14:06;5.80;99.90
22288;DHT22;11312;51.464;6.968;2023-02-13T07:16:32;5.80;99.90
22288;DHT22;11312;51.464;6.968;2023-02-13T07:18:58;5.80;99.90
22288;DHT22;11312;51.464;6.968;2023-02-13T07:21:23;5.80;99.90
22288;DHT22;11312;51.464;6.968;2023-02-13T07:23:50;6.00;99.90
22288;DHT22;11312;51.464;6.968;2023-02-13T07:26:16;6.00;99.90
22288;DHT22;11312;51.464;6.968;2023-02-13T07:28:41;6.00;99.90
22288;DHT22;11312;51.464;6.968;2023-02-13T07:31:07;6.00;99.90
22288;DHT22;11312;51.464;6.968;2023-02-13T07:33:33;5.90;99.90
22288;DHT22;11312;51.464;6.968;2023-02-13T07:35:59;5.90;99.90
22288;DHT22;11312;51.464;6.968;2023-02-13T07:38:30;6.00;99.90
22288;DHT22;11312;51.464;6.968;2023-02-13T07:41:03;6.00;99.90
22288;DHT22;11312;51.464;6.968;2023-02-13T07:43:29;5.90;99.90
22288;DHT22;11312;51.464;6.968;2023-02-13T07:45:59;6.00;99.90
22288;DHT22;11312;51.464;6.968;2023-02-13T07:48:25;5.90;99.90
22288;DHT22;11312;51.464;6.968;2023-02-13T07:50:52;6.00;99.90
22288;DHT22;11312;51.464;6.968;2023-02-13T07:53:17;6.00;99.90
22288;DHT22;11312;51.464;6.968;2023-02-13T07:55:43;6.10;99.90
22288;DHT22;11312;51.464;6.968;2023-02-13T07:58:09;6.20;99.90
22288;DHT22;11312;51.464;6.968;2023-02-13T08:00:34;6.20;99.90
22288;DHT22;11312;51.464;6.968;2023-02-13T08:03:01;6.20;99.90
22288;DHT22;11312;51.464;6.968;2023-02-13T08:05:28;6.40;99.90
22288;DHT22;11312;51.464;6.968;2023-02-13T08:07:54;6.50;99.90
22288;DHT22;11312;51.464;6.968;2023-02-13T08:10:20;6.50;99.90
22288;DHT22;11312;51.464;6.968;2023-02-13T08:13:05;6.60;99.90
22288;DHT22;11312;51.464;6.968;2023-02-13T08:15:31;6.80;99.90
22288;DHT22;11312;51.464;6.968;2023-02-13T08:17:57;6.80;99.90
22288;DHT22;11312;51.464;6.968;2023-02-13T08:20:22;7.40;99.90
22288;DHT22;11312;51.464;6.968;2023-02-13T08:22:48;9.20;99.90
22288;DHT22;11312;51.464;6.968;2023-02-13T08:25:14;9.80;99.90
22288;DHT22;11312;51.464;6.968;2023-02-13T08:27:39;10.60;99.90
22288;DHT22;11312;51.464;6.968;2023-02-13T08:30:06;11.30;99.90
22288;DHT22;11312;51.464;6.968;2023-02-13T08:32:32;10.80;99.90
22288;DHT22;11312;51.464;6.968;2023-02-13T08:34:57;10.40;99.90
22288;DHT22;11312;51.464;6.968;2023-02-13T08:37:23;9.90;99.90
22288;DHT22;11312;51.464;6.968;2023-02-13T08:39:49;9.70;99.90
22288;DHT22;11312;51.464;6.968;2023-02-13T08:42:14;9.30;99.90
22288;DHT22;11312;51.464;6.968;2023-02-13T08:44:40;8.90;99.90
22288;DHT22;11312;51.464;6.968;2023-02-13T08:47:07;8.60;99.90
22288;DHT22;11312;51.464;6.968;2023-02-13T08:49:34;8.40;99.90
22288;DHT22;11312;51.464;6.968;2023-02-13T08:52:00;8.40;99.90
22288;DHT22;11312;51.464;6.968;2023-02-13T08:54:26;8.30;99.90
22288;DHT22;11312;51.464;6.968;2023-02-13T08:56:53;8.30;99.90
22288;DHT22;11312;51.464;6.968;2023-02-13T08:59:19;8.30;99.90
22288;DHT22;11312;51.464;6.968;2023-02-13T09:01:46;8.30;99.90
22288;DHT22;11312;51.464;6.968;2023-02-13T09:04:12;8.30;99.90
22288;DHT22;11312;51.464;6.968;2023-02-13T09:06:41;8.30;99.90
22288;DHT22;11312;51.464;6.968;2023-02-13T09:09:06;8.30;99.90
22288;DHT22;11312;51.464;6.968;2023-02-13T09:11:32;8.40;99.90
22288;DHT22;11312;51.464;6.968;2023-02-13T09:13:58;8.40;99.90
22288;DHT22;11312;51.464;6.968;2023-02-13T09:16:23;8.50;99.90
22288;DHT22;11312;51.464;6.968;2023-02-13T09:18:49;8.60;99.90
22288;DHT22;11312;51.464;6.968;2023-02-13T09:21:16;9.20;99.90
22288;DHT22;11312;51.464;6.968;2023-02-13T09:23:42;9.80;99.90
22288;DHT22;11312;51.464;6.968;2023-02-13T09:26:11;11.10;99.90
22288;DHT22;11312;51.464;6.968;2023-02-13T09:28:37;12.40;99.90
22288;DHT22;11312;51.464;6.968;2023-02-13T09:31:17;13.40;94.90
22288;DHT22;11312;51.464;6.968;2023-02-13T09:33:43;13.40;99.90
22288;DHT22;11312;51.464;6.968;2023-02-13T09:36:11;14.40;99.50
22288;DHT22;11312;51.464;6.968;2023-02-13T09:38:40;15.40;92.70
22288;DHT22;11312;51.464;6.968;2023-02-13T09:46:35;18.90;93.60
22288;DHT22;11312;51.464;6.968;2023-02-13T09:49:14;17.30;75.20
22288;DHT22;11312;51.464;6.968;2023-02-13T09:51:42;16.40;72.50
22288;DHT22;11312;51.464;6.968;2023-02-13T09:54:13;17.20;80.90
22288;DHT22;11312;51.464;6.968;2023-02-13T09:56:57;18.00;90.10
22288;DHT22;11312;51.464;6.968;2023-02-13T09:59:45;18.30;92.80
22288;DHT22;11312;51.464;6.968;2023-02-13T10:16:04;20.30;57.80
22288;DHT22;11312;51.464;6.968;2023-02-13T10:18:45;20.50;54.50
22288;DHT22;11312;51.464;6.968;2023-02-13T10:21:13;21.40;50.20
22288;DHT22;11312;51.464;6.968;2023-02-13T10:23:50;21.70;46.50
22288;DHT22;11312;51.464;6.968;2023-02-13T10:28:46;19.60;54.20
22288;DHT22;11312;51.464;6.968;2023-02-13T10:31:33;19.00;50.10
22288;DHT22;11312;51.464;6.968;2023-02-13T10:33:59;20.70;60.60
22288;DHT22;11312;51.464;6.968;2023-02-13T10:36:28;22.70;54.30
22288;DHT22;11312;51.464;6.968;2023-02-13T10:38:56;23.70;50.20
22288;DHT22;11312;51.464;6.968;2023-02-13T10:41:34;24.80;49.20
22288;DHT22;11312;51.464;6.968;2023-02-13T10:59:50;18.50;55.80
22288;DHT22;11312;51.464;6.968;2023-02-13T11:02:21;19.40;51.90
22288;DHT22;11312;51.464;6.968;2023-02-13T11:04:49;21.00;51.30
22288;DHT22;11312;51.464;6.968;2023-02-13T11:07:19;22.30;39.90
22288;DHT22;11312;51.464;6.968;2023-02-13T11:09:47;23.10;33.70
22288;DHT22;11312;51.464;6.968;2023-02-13T11:12:25;23.10;33.60
22288;DHT22;11312;51.464;6.968;2023-02-13T11:17:20;23.90;32.00
22288;DHT22;11312;51.464;6.968;2023-02-13T11:19:56;24.40;34.30
22288;DHT22;11312;51.464;6.968;2023-02-13T11:22:27;22.50;31.00
22288;DHT22;11312;51.464;6.968;2023-02-13T11:24:55;21.40;31.20
22288;DHT22;11312;51.464;6.968;2023-02-13T11:27:23;23.30;32.70
22288;DHT22;11312;51.464;6.968;2023-02-13T11:29:52;23.60;29.20
22288;DHT22;11312;51.464;6.968;2023-02-13T11:32:22;24.00;23.20
22288;DHT22;11312;51.464;6.968;2023-02-13T11:34:48;23.40;23.50
22288;DHT22;11312;51.464;6.968;2023-02-13T11:37:26;26.10;26.00
22288;DHT22;11312;51.464;6.968;2023-02-13T11:39:54;25.20;25.80
22288;DHT22;11312;51.464;6.968;2023-02-13T11:42:28;26.40;24.50
22288;DHT22;11312;51.464;6.968;2023-02-13T11:44:57;27.10;29.70
22288;DHT22;11312;51.464;6.968;2023-02-13T11:50:03;29.50;24.90
22288;DHT22;11312;51.464;6.968;2023-02-13T11:52:34;30.30;27.30
22288;DHT22;11312;51.464;6.968;2023-02-13T11:55:04;30.30;25.30
22288;DHT22;11312;51.464;6.968;2023-02-13T11:57:36;30.90;26.00
22288;DHT22;11312;51.464;6.968;2023-02-13T12:00:26;30.80;23.10
22288;DHT22;11312;51.464;6.968;2023-02-13T12:02:55;28.80;19.70
22288;DHT22;11312;51.464;6.968;2023-02-13T12:05:26;28.50;19.50
22288;DHT22;11312;51.464;6.968;2023-02-13T12:07:56;27.80;19.20
22288;DHT22;11312;51.464;6.968;2023-02-13T12:10:25;28.20;21.50
22288;DHT22;11312;51.464;6.968;2023-02-13T12:15:36;29.20;17.40
22288;DHT22;11312;51.464;6.968;2023-02-13T12:20:31;28.50;19.30
22288;DHT22;11312;51.464;6.968;2023-02-13T12:23:24;29.00;23.20
22288;DHT22;11312;51.464;6.968;2023-02-13T12:26:02;30.80;24.30
22288;DHT22;11312;51.464;6.968;2023-02-13T12:31:41;28.90;19.00
22288;DHT22;11312;51.464;6.968;2023-02-13T12:45:47;30.80;24.10
22288;DHT22;11312;51.464;6.968;2023-02-13T12:48:34;32.00;23.80
22288;DHT22;11312;51.464;6.968;2023-02-13T12:51:39;31.30;21.20
22288;DHT22;11312;51.464;6.968;2023-02-13T13:01:52;26.50;25.30
22288;DHT22;11312;51.464;6.968;2023-02-13T13:07:11;29.20;20.30
22288;DHT22;11312;51.464;6.968;2023-02-13T13:10:19;28.80;22.00
22288;DHT22;11312;51.464;6.968;2023-02-13T13:15:40;24.40;26.30
22288;DHT22;11312;51.464;6.968;2023-02-13T13:23:52;25.20;24.70
22288;DHT22;11312;51.464;6.968;2023-02-13T13:26:43;25.60;21.70
22288;DHT22;11312;51.464;6.968;2023-02-13T13:29:16;25.40;25.50
22288;DHT22;11312;51.464;6.968;2023-02-13T13:31:52;25.80;26.70
22288;DHT22;11312;51.464;6.968;2023-02-13T13:34:23;27.10;25.10
22288;DHT22;11312;51.464;6.968;2023-02-13T13:36:58;27.10;24.20
22288;DHT22;11312;51.464;6.968;2023-02-13T13:39:35;28.10;18.90
22288;DHT22;11312;51.464;6.968;2023-02-13T13:42:19;28.80;18.60
22288;DHT22;11312;51.464;6.968;2023-02-13T13:50:22;29.50;22.10
22288;DHT22;11312;51.464;6.968;2023-02-13T14:03:48;27.80;19.50
22288;DHT22;11312;51.464;6.968;2023-02-13T14:06:16;26.70;19.90
22288;DHT22;11312;51.464;6.968;2023-02-13T14:11:36;27.80;22.20
22288;DHT22;11312;51.464;6.968;2023-02-13T14:17:01;28.00;19.40
22288;DHT22;11312;51.464;6.968;2023-02-13T14:19:31;26.40;18.30
22288;DHT22;11312;51.464;6.968;2023-02-13T14:22:31;26.50;23.60
22288;DHT22;11312;51.464;6.968;2023-02-13T14:24:59;26.50;21.30
22288;DHT22;11312;51.464;6.968;2023-02-13T14:27:32;27.40;23.60
22288;DHT22;11312;51.464;6.968;2023-02-13T14:29:59;27.10;22.80
22288;DHT22;11312;51.464;6.968;2023-02-13T14:34:59;25.80;19.80
22288;DHT22;11312;51.464;6.968;2023-02-13T14:37:35;24.90;21.50
22288;DHT22;11312;51.464;6.968;2023-02-13T14:42:53;26.50;24.30
22288;DHT22;11312;51.464;6.968;2023-02-13T14:45:30;25.90;20.70
22288;DHT22;11312;51.464;6.968;2023-02-13T14:48:03;25.70;24.20
22288;DHT22;11312;51.464;6.968;2023-02-13T14:50:39;25.30;22.10
22288;DHT22;11312;51.464;6.968;2023-02-13T14:53:19;25.00;22.00
22288;DHT22;11312;51.464;6.968;2023-02-13T14:55:49;24.50;24.10
22288;DHT22;11312;51.464;6.968;2023-02-13T14:58:24;24.60;27.10
22288;DHT22;11312;51.464;6.968;2023-02-13T15:01:10;24.50;25.20
22288;DHT22;11312;51.464;6.968;2023-02-13T15:06:12;24.00;27.70
22288;DHT22;11312;51.464;6.968;2023-02-13T15:08:47;23.80;25.30
22288;DHT22;11312;51.464;6.968;2023-02-13T15:11:35;23.30;27.20
22288;DHT22;11312;51.464;6.968;2023-02-13T15:14:34;22.90;25.30
22288;DHT22;11312;51.464;6.968;2023-02-13T15:19:51;22.90;30.60
22288;DHT22;11312;51.464;6.968;2023-02-13T15:22:31;22.90;26.40
22288;DHT22;11312;51.464;6.968;2023-02-13T15:24:57;22.70;29.10
22288;DHT22;11312;51.464;6.968;2023-02-13T15:27:29;22.50;30.20
22288;DHT22;11312;51.464;6.968;2023-02-13T15:30:00;22.00;27.60
22288;DHT22;11312;51.464;6.968;2023-02-13T15:32:29;22.00;32.80
22288;DHT22;11312;51.464;6.968;2023-02-13T15:34:55;22.00;33.30
22288;DHT22;11312;51.464;6.968;2023-02-13T15:37:23;21.90;33.00
22288;DHT22;11312;51.464;6.968;2023-02-13T15:39:49;21.70;33.80
22288;DHT22;11312;51.464;6.968;2023-02-13T15:42:14;21.40;34.40
22288;DHT22;11312;51.464;6.968;2023-02-13T15:44:44;20.70;35.80
22288;DHT22;11312;51.464;6.968;2023-02-13T15:47:27;19.90;37.90
22288;DHT22;11312;51.464;6.968;2023-02-13T15:49:54;18.50;42.30
22288;DHT22;11312;51.464;6.968;2023-02-13T15:52:33;17.30;47.00
22288;DHT22;11312;51.464;6.968;2023-02-13T15:54:59;16.50;36.10
22288;DHT22;11312;51.464;6.968;2023-02-13T15:57:25;16.00;28.80
22288;DHT22;11312;51.464;6.968;2023-02-13T15:59:54;15.50;28.10
22288;DHT22;11312;51.464;6.968;2023-02-13T16:02:29;15.20;27.00
22288;DHT22;11312;51.464;6.968;2023-02-13T16:05:00;14.90;28.40
22288;DHT22;11312;51.464;6.968;2023-02-13T16:07:26;14.60;46.20
22288;DHT22;11312;51.464;6.968;2023-02-13T16:10:15;14.50;41.80
22288;DHT22;11312;51.464;6.968;2023-02-13T16:12:46;14.30;55.60
22288;DHT22;11312;51.464;6.968;2023-02-13T16:15:15;14.10;67.20
22288;DHT22;11312;51.464;6.968;2023-02-13T16:17:44;13.90;74.10
22288;DHT22;11312;51.464;6.968;2023-02-13T16:22:44;13.60;82.70
22288;DHT22;11312;51.464;6.968;2023-02-13T16:27:50;13.40;99.90
22288;DHT22;11312;51.464;6.968;2023-02-13T16:33:16;13.20;1.00
22288;DHT22;11312;51.464;6.968;2023-02-13T16:35:57;13.10;99.90
22288;DHT22;11312;51.464;6.968;2023-02-13T16:38:49;13.00;1.00
22288;DHT22;11312;51.464;6.968;2023-02-13T17:02:26;12.40;1.00
22288;DHT22;11312;51.464;6.968;2023-02-13T17:07:39;12.10;99.90
22288;DHT22;11312;51.464;6.968;2023-02-13T17:10:22;12.00;99.90
22288;DHT22;11312;51.464;6.968;2023-02-13T17:12:52;11.80;99.90
22288;DHT22;11312;51.464;6.968;2023-02-13T17:15:22;11.70;1.00
22288;DHT22;11312;51.464;6.968;2023-02-13T17:17:49;11.70;1.00
22288;DHT22;11312;51.464;6.968;2023-02-13T17:20:29;11.60;1.00
22288;DHT22;11312;51.464;6.968;2023-02-13T17:22:57;11.50;1.00
22288;DHT22;11312;51.464;6.968;2023-02-13T17:25:29;11.40;1.00
22288;DHT22;11312;51.464;6.968;2023-02-13T17:28:00;11.20;1.00
22288;DHT22;11312;51.464;6.968;2023-02-13T17:30:29;11.10;1.00
22288;DHT22;11312;51.464;6.968;2023-02-13T17:33:03;11.00;1.00
22288;DHT22;11312;51.464;6.968;2023-02-13T17:35:29;10.80;7.10
22288;DHT22;11312;51.464;6.968;2023-02-13T17:37:55;10.80;99.90
22288;DHT22;11312;51.464;6.968;2023-02-13T17:40:22;10.80;99.90
22288;DHT22;11312;51.464;6.968;2023-02-13T17:42:52;10.80;99.90
22288;DHT22;11312;51.464;6.968;2023-02-13T17:45:19;10.80;99.90
22288;DHT22;11312;51.464;6.968;2023-02-13T17:47:45;10.50;99.90
22288;DHT22;11312;51.464;6.968;2023-02-13T17:50:13;10.70;99.90
22288;DHT22;11312;51.464;6.968;2023-02-13T17:52:39;10.80;99.90
22288;DHT22;11312;51.464;6.968;2023-02-13T17:55:12;10.80;99.90
22288;DHT22;11312;51.464;6.968;2023-02-13T17:57:38;11.80;99.90
22288;DHT22;11312;51.464;6.968;2023-02-13T18:00:05;13.90;1.00
22288;DHT22;11312;51.464;6.968;2023-02-13T18:02:30;14.00;99.90
22288;DHT22;11312;51.464;6.968;2023-02-13T18:04:58;12.90;1.00
22288;DHT22;11312;51.464;6.968;2023-02-13T18:07:24;13.50;99.90
22288;DHT22;11312;51.464;6.968;2023-02-13T18:09:50;13.20;1.00
22288;DHT22;11312;51.464;6.968;2023-02-13T18:12:22;12.10;1.00
22288;DHT22;11312;51.464;6.968;2023-02-13T18:14:48;11.30;99.90
22288;DHT22;11312;51.464;6.968;2023-02-13T18:17:15;10.90;99.90
22288;DHT22;11312;51.464;6.968;2023-02-13T18:19:41;10.70;99.90
22288;DHT22;11312;51.464;6.968;2023-02-13T18:22:09;10.50;1.00
22288;DHT22;11312;51.464;6.968;2023-02-13T18:24:37;10.30;1.00
22288;DHT22;11312;51.464;6.968;2023-02-13T18:27:04;10.30;1.00
22288;DHT22;11312;51.464;6.968;2023-02-13T18:29:29;10.20;1.00
22288;DHT22;11312;51.464;6.968;2023-02-13T18:31:55;10.10;1.00
22288;DHT22;11312;51.464;6.968;2023-02-13T18:34:23;10.10;1.00
22288;DHT22;11312;51.464;6.968;2023-02-13T18:36:49;10.00;1.00
22288;DHT22;11312;51.464;6.968;2023-02-13T18:39:16;9.90;1.00
22288;DHT22;11312;51.464;6.968;2023-02-13T18:41:42;9.80;1.00
22288;DHT22;11312;51.464;6.968;2023-02-13T18:44:08;9.70;1.00
22288;DHT22;11312;51.464;6.968;2023-02-13T18:46:34;9.60;1.00
22288;DHT22;11312;51.464;6.968;2023-02-13T18:49:00;9.50;1.00
22288;DHT22;11312;51.464;6.968;2023-02-13T18:51:25;9.30;1.00
22288;DHT22;11312;51.464;6.968;2023-02-13T18:53:51;9.50;1.00
22288;DHT22;11312;51.464;6.968;2023-02-13T18:56:17;9.20;1.00
22288;DHT22;11312;51.464;6.968;2023-02-13T18:58:45;9.10;1.00
22288;DHT22;11312;51.464;6.968;2023-02-13T19:01:13;9.00;1.00
22288;DHT22;11312;51.464;6.968;2023-02-13T19:03:40;9.00;1.00